»·PEaware :: N717TS L19-KSNA

N717TS :: L19-KSNA

FLIGHT INFORMATION

Flight Status: Arrived
Operator: Privately registered:
United States
More flights under this callsign
Pilot: Ty S. (2873)
Aircraft: SOCATA TBM-900
(TBM9)
More flights by this aircraft type
Origin: L19 Wasco-Kern Co
United States
Destination: KSNA John Wayne-Orange Co
United States
More flights between these airports :: More routes between these airports
Route: +LHS V459 SLI
File this flight plan on PilotEdge
Remarks:
Altitude:
(Current/Filed)
17,000ft
Speed:
(Current/Filed)
250kts
Departed: 23-Mar-20 06:02 PM
Arrived: 23-Mar-20 06:51 PM
Distance/Time
Traveled:
138nm/0:48
Distance/Time
To Go:
Arrived

Flight Plot

Page will automatically refresh every two minutes.

Flight plan parsing failed; only flown route is shown


Map Options




Map Legend


Flown Route
Filed Route
Departure Airport
Arrival Airport
Navaid (VOR, NDB)
Fix

Horizontal Profiles

Position Reports

Time Latitude Longitude Heading Altitude Ground
Speed
23-Mar-20 17:52 35.617819 -119.349706 179 315ft 0kts
23-Mar-20 17:53 35.617819 -119.349706 179 315ft 0kts
23-Mar-20 17:54 35.617819 -119.349706 179 315ft 0kts
23-Mar-20 17:55 35.617819 -119.349706 179 315ft 0kts
23-Mar-20 17:56 35.617819 -119.349706 179 315ft 0kts
23-Mar-20 17:57 35.617819 -119.349706 179 315ft 0kts
23-Mar-20 17:58 35.617819 -119.349706 179 315ft 0kts
23-Mar-20 17:59 35.617475 -119.349881 198 315ft 0kts
23-Mar-20 18:00 35.617345 -119.349913 188 315ft 3kts
23-Mar-20 18:01 35.618383 -119.351951 314 315ft 66kts
23-Mar-20 18:02 35.635027 -119.383051 262 1579ft 137kts
23-Mar-20 18:03 35.594886 -119.391229 168 2805ft 187kts
23-Mar-20 18:04 35.547777 -119.377305 168 4721ft 175kts
23-Mar-20 18:05 35.501299 -119.359389 153 6568ft 179kts
23-Mar-20 18:06 35.456998 -119.329680 143 8247ft 185kts
23-Mar-20 18:07 35.416362 -119.290023 142 9774ft 189kts
23-Mar-20 18:08 35.374821 -119.249205 142 11171ft 193kts
23-Mar-20 18:09 35.332442 -119.207593 143 12437ft 198kts
23-Mar-20 18:10 35.288705 -119.164704 143 13569ft 204kts
23-Mar-20 18:11 35.243771 -119.120706 144 14647ft 212kts
23-Mar-20 18:12 35.195623 -119.073694 144 15520ft 247kts
23-Mar-20 18:13 35.137167 -119.016601 144 15501ft 282kts
23-Mar-20 18:14 35.074852 -118.955876 144 15499ft 289kts
23-Mar-20 18:15 35.011883 -118.894636 145 15507ft 288kts
23-Mar-20 18:16 34.949308 -118.833917 146 15514ft 287kts
23-Mar-20 18:17 34.891214 -118.777685 147 15518ft 290kts
23-Mar-20 18:18 34.827603 -118.716253 147 15521ft 295kts
23-Mar-20 18:19 34.764192 -118.654997 148 16182ft 276kts
23-Mar-20 18:20 34.708695 -118.601536 151 17009ft 234kts
23-Mar-20 18:21 34.655730 -118.560888 165 17043ft 222kts
23-Mar-20 18:22 34.599488 -118.527962 165 17046ft 226kts
23-Mar-20 18:23 34.542552 -118.494634 164 16718ft 225kts
23-Mar-20 18:24 34.487231 -118.462305 163 15225ft 217kts
23-Mar-20 18:25 34.432189 -118.430242 160 13806ft 236kts
23-Mar-20 18:26 34.370296 -118.394121 158 12390ft 252kts
23-Mar-20 18:27 34.307205 -118.357320 157 11006ft 247kts
23-Mar-20 18:28 34.244736 -118.321030 158 10985ft 258kts
23-Mar-20 18:29 34.179794 -118.283357 158 10980ft 262kts
23-Mar-20 18:30 34.113595 -118.245024 157 10980ft 264kts
23-Mar-20 18:31 34.047946 -118.207063 157 9959ft 256kts
23-Mar-20 18:32 33.984939 -118.170702 157 8441ft 247kts
23-Mar-20 18:33 33.921693 -118.154237 191 6990ft 230kts
23-Mar-20 18:34 33.860634 -118.165726 191 6974ft 234kts
23-Mar-20 18:35 33.795464 -118.177835 191 6974ft 238kts
23-Mar-20 18:36 33.752166 -118.130977 101 6122ft 246kts
23-Mar-20 18:37 33.741380 -118.053620 101 4843ft 227kts
23-Mar-20 18:38 33.738049 -117.980805 51 3298ft 221kts
23-Mar-20 18:40 33.782154 -117.931318 41 2979ft 216kts
23-Mar-20 18:41 33.827048 -117.881943 41 2977ft 219kts
23-Mar-20 18:42 33.875058 -117.840402 21 2974ft 211kts
23-Mar-20 18:43 33.929382 -117.812849 23 2962ft 211kts
23-Mar-20 18:44 33.937256 -117.749612 131 2945ft 201kts
23-Mar-20 18:45 33.885519 -117.748617 191 2969ft 197kts
23-Mar-20 18:46 33.833393 -117.768896 210 2973ft 198kts
23-Mar-20 18:47 33.785678 -117.799129 209 2348ft 174kts
23-Mar-20 18:48 33.748769 -117.822645 210 1565ft 139kts
23-Mar-20 18:49 33.716219 -117.843428 207 851ft 99kts
23-Mar-20 18:50 33.694460 -117.856829 210 387ft 87kts
23-Mar-20 18:51 33.676157 -117.868529 206 59ft 29kts
23-Mar-20 18:52 33.673303 -117.867004 211 59ft 9kts
23-Mar-20 18:53 33.672086 -117.867342 206 59ft 0kts
23-Mar-20 18:54 33.672086 -117.867342 206 59ft 0kts

Navigation Log

Ident Type
Flight plan parsing failed, navigation log unavailable